sensor_id;sensor_type;location;lat;lon;timestamp;P1;durP1;ratioP1;P2;durP2;ratioP2
76867;SDS011;66168;45.478;11.060;2023-04-03T00:00:30;1.10;;;0.60;;
76867;SDS011;66168;45.478;11.060;2023-04-03T00:02:57;0.50;;;0.50;;
76867;SDS011;66168;45.478;11.060;2023-04-03T00:07:49;1.10;;;0.50;;
76867;SDS011;66168;45.478;11.060;2023-04-03T00:10:15;0.80;;;0.50;;
76867;SDS011;66168;45.478;11.060;2023-04-03T00:12:42;0.50;;;0.40;;
76867;SDS011;66168;45.478;11.060;2023-04-03T00:15:08;0.40;;;0.40;;
76867;SDS011;66168;45.478;11.060;2023-04-03T00:17:34;0.80;;;0.60;;
76867;SDS011;66168;45.478;11.060;2023-04-03T00:20:01;0.40;;;0.40;;
76867;SDS011;66168;45.478;11.060;2023-04-03T00:22:28;0.40;;;0.40;;
76867;SDS011;66168;45.478;11.060;2023-04-03T00:24:55;0.80;;;0.50;;
76867;SDS011;66168;45.478;11.060;2023-04-03T00:27:21;0.50;;;0.50;;
76867;SDS011;66168;45.478;11.060;2023-04-03T00:29:47;0.70;;;0.60;;
76867;SDS011;66168;45.478;11.060;2023-04-03T00:32:13;0.60;;;0.50;;
76867;SDS011;66168;45.478;11.060;2023-04-03T00:34:40;0.20;;;0.20;;
76867;SDS011;66168;45.478;11.060;2023-04-03T00:37:06;1.70;;;0.50;;
76867;SDS011;66168;45.478;11.060;2023-04-03T00:41:58;0.60;;;0.60;;
76867;SDS011;66168;45.478;11.060;2023-04-03T00:46:53;0.50;;;0.50;;
76867;SDS011;66168;45.478;11.060;2023-04-03T00:49:20;0.60;;;0.50;;
76867;SDS011;66168;45.478;11.060;2023-04-03T00:51:46;0.40;;;0.40;;
76867;SDS011;66168;45.478;11.060;2023-04-03T00:54:12;0.50;;;0.50;;
76867;SDS011;66168;45.478;11.060;2023-04-03T00:56:39;0.70;;;0.40;;
76867;SDS011;66168;45.478;11.060;2023-04-03T00:59:07;0.30;;;0.30;;
76867;SDS011;66168;45.478;11.060;2023-04-03T01:01:39;0.40;;;0.40;;
76867;SDS011;66168;45.478;11.060;2023-04-03T01:04:06;0.40;;;0.40;;
76867;SDS011;66168;45.478;11.060;2023-04-03T01:06:52;0.30;;;0.30;;
76867;SDS011;66168;45.478;11.060;2023-04-03T01:09:22;0.50;;;0.50;;
76867;SDS011;66168;45.478;11.060;2023-04-03T01:11:48;0.50;;;0.30;;
76867;SDS011;66168;45.478;11.060;2023-04-03T01:16:40;0.30;;;0.20;;
76867;SDS011;66168;45.478;11.060;2023-04-03T01:19:12;0.80;;;0.40;;
76867;SDS011;66168;45.478;11.060;2023-04-03T01:24:41;0.50;;;0.40;;
76867;SDS011;66168;45.478;11.060;2023-04-03T01:27:09;0.40;;;0.40;;
76867;SDS011;66168;45.478;11.060;2023-04-03T01:29:37;1.20;;;0.50;;
76867;SDS011;66168;45.478;11.060;2023-04-03T01:32:05;0.40;;;0.40;;
76867;SDS011;66168;45.478;11.060;2023-04-03T01:34:32;0.50;;;0.50;;
76867;SDS011;66168;45.478;11.060;2023-04-03T01:36:58;0.50;;;0.50;;
76867;SDS011;66168;45.478;11.060;2023-04-03T01:39:24;0.40;;;0.40;;
76867;SDS011;66168;45.478;11.060;2023-04-03T01:41:50;0.30;;;0.30;;
76867;SDS011;66168;45.478;11.060;2023-04-03T01:44:27;0.40;;;0.40;;
76867;SDS011;66168;45.478;11.060;2023-04-03T01:49:19;0.50;;;0.50;;
76867;SDS011;66168;45.478;11.060;2023-04-03T01:51:45;0.60;;;0.50;;
76867;SDS011;66168;45.478;11.060;2023-04-03T01:56:37;0.50;;;0.40;;
76867;SDS011;66168;45.478;11.060;2023-04-03T01:59:04;0.70;;;0.50;;
76867;SDS011;66168;45.478;11.060;2023-04-03T02:01:30;0.50;;;0.40;;
76867;SDS011;66168;45.478;11.060;2023-04-03T02:03:56;0.70;;;0.70;;
76867;SDS011;66168;45.478;11.060;2023-04-03T02:06:22;0.70;;;0.50;;
76867;SDS011;66168;45.478;11.060;2023-04-03T02:08:49;0.40;;;0.40;;
76867;SDS011;66168;45.478;11.060;2023-04-03T02:11:15;0.70;;;0.70;;
76867;SDS011;66168;45.478;11.060;2023-04-03T02:13:42;0.70;;;0.70;;
76867;SDS011;66168;45.478;11.060;2023-04-03T02:18:38;0.80;;;0.80;;
76867;SDS011;66168;45.478;11.060;2023-04-03T02:21:05;0.80;;;0.60;;
76867;SDS011;66168;45.478;11.060;2023-04-03T02:23:31;0.60;;;0.60;;
76867;SDS011;66168;45.478;11.060;2023-04-03T02:26:04;1.10;;;0.50;;
76867;SDS011;66168;45.478;11.060;2023-04-03T02:28:35;0.80;;;0.80;;
76867;SDS011;66168;45.478;11.060;2023-04-03T02:31:02;2.30;;;0.70;;
76867;SDS011;66168;45.478;11.060;2023-04-03T02:33:30;0.70;;;0.60;;
76867;SDS011;66168;45.478;11.060;2023-04-03T02:35:57;0.50;;;0.50;;
76867;SDS011;66168;45.478;11.060;2023-04-03T02:38:24;1.00;;;0.90;;
76867;SDS011;66168;45.478;11.060;2023-04-03T02:40:52;0.40;;;0.40;;
76867;SDS011;66168;45.478;11.060;2023-04-03T02:45:44;1.80;;;0.80;;
76867;SDS011;66168;45.478;11.060;2023-04-03T02:48:10;1.60;;;0.70;;
76867;SDS011;66168;45.478;11.060;2023-04-03T02:53:02;2.00;;;1.10;;
76867;SDS011;66168;45.478;11.060;2023-04-03T02:55:28;0.40;;;0.40;;
76867;SDS011;66168;45.478;11.060;2023-04-03T02:57:55;0.80;;;0.80;;
76867;SDS011;66168;45.478;11.060;2023-04-03T03:00:21;0.60;;;0.60;;
76867;SDS011;66168;45.478;11.060;2023-04-03T03:02:48;0.70;;;0.70;;
76867;SDS011;66168;45.478;11.060;2023-04-03T03:05:15;1.30;;;0.70;;
76867;SDS011;66168;45.478;11.060;2023-04-03T03:07:41;1.90;;;0.90;;
76867;SDS011;66168;45.478;11.060;2023-04-03T03:10:07;2.20;;;1.40;;
76867;SDS011;66168;45.478;11.060;2023-04-03T03:12:33;1.30;;;1.10;;
76867;SDS011;66168;45.478;11.060;2023-04-03T03:14:59;2.40;;;1.30;;
76867;SDS011;66168;45.478;11.060;2023-04-03T03:19:52;0.80;;;0.80;;
76867;SDS011;66168;45.478;11.060;2023-04-03T03:24:44;0.90;;;0.90;;
76867;SDS011;66168;45.478;11.060;2023-04-03T03:27:09;1.10;;;1.00;;
76867;SDS011;66168;45.478;11.060;2023-04-03T03:29:35;0.90;;;0.90;;
76867;SDS011;66168;45.478;11.060;2023-04-03T03:32:02;0.90;;;0.80;;
76867;SDS011;66168;45.478;11.060;2023-04-03T03:34:28;1.00;;;0.90;;
76867;SDS011;66168;45.478;11.060;2023-04-03T03:36:54;0.80;;;0.80;;
76867;SDS011;66168;45.478;11.060;2023-04-03T03:39:20;0.80;;;0.80;;
76867;SDS011;66168;45.478;11.060;2023-04-03T03:41:47;1.00;;;0.90;;
76867;SDS011;66168;45.478;11.060;2023-04-03T03:44:15;3.20;;;1.50;;
76867;SDS011;66168;45.478;11.060;2023-04-03T03:46:41;0.90;;;0.90;;
76867;SDS011;66168;45.478;11.060;2023-04-03T03:49:07;1.70;;;1.00;;
76867;SDS011;66168;45.478;11.060;2023-04-03T03:51:34;1.00;;;1.00;;
76867;SDS011;66168;45.478;11.060;2023-04-03T03:54:01;1.20;;;1.10;;
76867;SDS011;66168;45.478;11.060;2023-04-03T03:56:27;1.50;;;1.10;;
76867;SDS011;66168;45.478;11.060;2023-04-03T04:01:20;2.50;;;1.30;;
76867;SDS011;66168;45.478;11.060;2023-04-03T04:03:47;1.20;;;1.10;;
76867;SDS011;66168;45.478;11.060;2023-04-03T04:06:16;1.20;;;1.10;;
76867;SDS011;66168;45.478;11.060;2023-04-03T04:08:43;1.10;;;0.90;;
76867;SDS011;66168;45.478;11.060;2023-04-03T04:11:10;1.40;;;1.00;;
76867;SDS011;66168;45.478;11.060;2023-04-03T04:13:36;0.90;;;0.90;;
76867;SDS011;66168;45.478;11.060;2023-04-03T04:16:03;1.10;;;1.00;;
76867;SDS011;66168;45.478;11.060;2023-04-03T04:18:29;1.10;;;1.00;;
76867;SDS011;66168;45.478;11.060;2023-04-03T04:20:56;0.80;;;0.80;;
76867;SDS011;66168;45.478;11.060;2023-04-03T04:23:22;1.40;;;0.80;;
76867;SDS011;66168;45.478;11.060;2023-04-03T04:25:49;0.80;;;0.80;;
76867;SDS011;66168;45.478;11.060;2023-04-03T04:28:16;1.10;;;0.90;;
76867;SDS011;66168;45.478;11.060;2023-04-03T04:30:43;2.30;;;0.90;;
76867;SDS011;66168;45.478;11.060;2023-04-03T04:33:09;1.10;;;0.90;;
76867;SDS011;66168;45.478;11.060;2023-04-03T04:35:35;0.90;;;0.90;;
76867;SDS011;66168;45.478;11.060;2023-04-03T04:38:02;0.80;;;0.80;;
76867;SDS011;66168;45.478;11.060;2023-04-03T04:40:29;1.50;;;1.10;;
76867;SDS011;66168;45.478;11.060;2023-04-03T04:42:55;1.20;;;1.10;;
76867;SDS011;66168;45.478;11.060;2023-04-03T04:47:47;1.90;;;1.10;;
76867;SDS011;66168;45.478;11.060;2023-04-03T04:50:13;3.50;;;1.10;;
76867;SDS011;66168;45.478;11.060;2023-04-03T04:55:06;1.60;;;1.10;;
76867;SDS011;66168;45.478;11.060;2023-04-03T04:57:32;2.40;;;1.20;;
76867;SDS011;66168;45.478;11.060;2023-04-03T04:59:59;1.00;;;0.80;;
76867;SDS011;66168;45.478;11.060;2023-04-03T05:02:26;5.10;;;1.00;;
76867;SDS011;66168;45.478;11.060;2023-04-03T05:04:52;0.90;;;0.90;;
76867;SDS011;66168;45.478;11.060;2023-04-03T05:07:22;2.50;;;0.90;;
76867;SDS011;66168;45.478;11.060;2023-04-03T05:09:48;1.20;;;0.90;;
76867;SDS011;66168;45.478;11.060;2023-04-03T05:12:15;2.60;;;0.70;;
76867;SDS011;66168;45.478;11.060;2023-04-03T05:14:47;1.80;;;0.90;;
76867;SDS011;66168;45.478;11.060;2023-04-03T05:17:14;1.70;;;0.90;;
76867;SDS011;66168;45.478;11.060;2023-04-03T05:19:44;1.70;;;0.60;;
76867;SDS011;66168;45.478;11.060;2023-04-03T05:22:10;1.10;;;0.50;;
76867;SDS011;66168;45.478;11.060;2023-04-03T05:27:03;0.70;;;0.70;;
76867;SDS011;66168;45.478;11.060;2023-04-03T05:29:30;0.80;;;0.70;;
76867;SDS011;66168;45.478;11.060;2023-04-03T05:31:57;3.30;;;1.00;;
76867;SDS011;66168;45.478;11.060;2023-04-03T05:34:23;1.00;;;0.90;;
76867;SDS011;66168;45.478;11.060;2023-04-03T05:36:50;2.70;;;1.00;;
76867;SDS011;66168;45.478;11.060;2023-04-03T05:39:17;3.10;;;2.80;;
76867;SDS011;66168;45.478;11.060;2023-04-03T05:41:43;2.50;;;1.40;;
76867;SDS011;66168;45.478;11.060;2023-04-03T05:44:10;1.30;;;1.10;;
76867;SDS011;66168;45.478;11.060;2023-04-03T05:46:36;2.10;;;1.00;;
76867;SDS011;66168;45.478;11.060;2023-04-03T05:49:04;2.30;;;1.00;;
76867;SDS011;66168;45.478;11.060;2023-04-03T05:51:33;2.20;;;1.20;;
76867;SDS011;66168;45.478;11.060;2023-04-03T05:54:20;4.40;;;1.30;;
76867;SDS011;66168;45.478;11.060;2023-04-03T05:56:50;2.50;;;1.00;;
76867;SDS011;66168;45.478;11.060;2023-04-03T05:59:17;1.10;;;1.10;;
76867;SDS011;66168;45.478;11.060;2023-04-03T06:01:46;1.50;;;1.00;;
76867;SDS011;66168;45.478;11.060;2023-04-03T06:04:13;1.60;;;1.20;;
76867;SDS011;66168;45.478;11.060;2023-04-03T06:06:53;2.20;;;1.00;;
76867;SDS011;66168;45.478;11.060;2023-04-03T06:09:21;1.20;;;1.10;;
76867;SDS011;66168;45.478;11.060;2023-04-03T06:11:50;1.30;;;0.90;;
76867;SDS011;66168;45.478;11.060;2023-04-03T06:14:18;11.90;;;1.40;;
76867;SDS011;66168;45.478;11.060;2023-04-03T06:16:44;1.30;;;1.20;;
76867;SDS011;66168;45.478;11.060;2023-04-03T06:19:11;2.90;;;1.10;;
76867;SDS011;66168;45.478;11.060;2023-04-03T06:21:40;1.50;;;0.70;;
76867;SDS011;66168;45.478;11.060;2023-04-03T06:24:07;2.90;;;1.00;;
76867;SDS011;66168;45.478;11.060;2023-04-03T06:26:34;1.60;;;1.00;;
76867;SDS011;66168;45.478;11.060;2023-04-03T06:29:00;1.00;;;1.00;;
76867;SDS011;66168;45.478;11.060;2023-04-03T06:31:27;2.70;;;1.20;;
76867;SDS011;66168;45.478;11.060;2023-04-03T06:33:53;1.30;;;1.00;;
76867;SDS011;66168;45.478;11.060;2023-04-03T06:38:46;1.10;;;1.00;;
76867;SDS011;66168;45.478;11.060;2023-04-03T06:41:13;1.40;;;1.00;;
76867;SDS011;66168;45.478;11.060;2023-04-03T06:43:40;1.50;;;1.10;;
76867;SDS011;66168;45.478;11.060;2023-04-03T06:46:06;1.50;;;1.40;;
76867;SDS011;66168;45.478;11.060;2023-04-03T06:48:32;0.90;;;0.90;;
76867;SDS011;66168;45.478;11.060;2023-04-03T06:50:58;2.30;;;0.90;;
76867;SDS011;66168;45.478;11.060;2023-04-03T06:55:50;4.10;;;1.40;;
76867;SDS011;66168;45.478;11.060;2023-04-03T07:00:43;4.80;;;1.30;;
76867;SDS011;66168;45.478;11.060;2023-04-03T07:03:09;1.50;;;1.20;;
76867;SDS011;66168;45.478;11.060;2023-04-03T07:05:35;2.90;;;1.20;;
76867;SDS011;66168;45.478;11.060;2023-04-03T07:08:02;2.00;;;1.50;;
76867;SDS011;66168;45.478;11.060;2023-04-03T07:10:28;1.40;;;1.30;;
76867;SDS011;66168;45.478;11.060;2023-04-03T07:12:53;2.30;;;1.40;;
76867;SDS011;66168;45.478;11.060;2023-04-03T07:15:20;5.10;;;1.40;;
76867;SDS011;66168;45.478;11.060;2023-04-03T07:17:46;1.90;;;1.60;;
76867;SDS011;66168;45.478;11.060;2023-04-03T07:20:12;2.30;;;1.60;;
76867;SDS011;66168;45.478;11.060;2023-04-03T07:22:38;2.80;;;1.50;;
76867;SDS011;66168;45.478;11.060;2023-04-03T07:25:05;3.10;;;1.50;;
76867;SDS011;66168;45.478;11.060;2023-04-03T07:27:32;2.90;;;1.70;;
76867;SDS011;66168;45.478;11.060;2023-04-03T07:29:59;1.50;;;1.40;;
76867;SDS011;66168;45.478;11.060;2023-04-03T07:32:25;4.00;;;1.90;;
76867;SDS011;66168;45.478;11.060;2023-04-03T07:34:51;3.80;;;1.90;;
76867;SDS011;66168;45.478;11.060;2023-04-03T07:37:17;4.90;;;1.80;;
76867;SDS011;66168;45.478;11.060;2023-04-03T07:39:44;3.30;;;1.50;;
76867;SDS011;66168;45.478;11.060;2023-04-03T07:42:10;2.00;;;1.40;;
76867;SDS011;66168;45.478;11.060;2023-04-03T07:44:37;2.10;;;1.40;;
76867;SDS011;66168;45.478;11.060;2023-04-03T07:47:03;2.80;;;1.60;;
76867;SDS011;66168;45.478;11.060;2023-04-03T07:49:29;3.70;;;1.50;;
76867;SDS011;66168;45.478;11.060;2023-04-03T07:51:55;3.30;;;1.70;;
76867;SDS011;66168;45.478;11.060;2023-04-03T07:54:21;3.60;;;1.50;;
76867;SDS011;66168;45.478;11.060;2023-04-03T07:56:47;3.00;;;1.60;;
76867;SDS011;66168;45.478;11.060;2023-04-03T07:59:13;2.90;;;1.60;;
76867;SDS011;66168;45.478;11.060;2023-04-03T08:01:40;4.70;;;2.00;;
76867;SDS011;66168;45.478;11.060;2023-04-03T08:04:06;4.70;;;2.00;;
76867;SDS011;66168;45.478;11.060;2023-04-03T08:06:32;2.20;;;1.50;;
76867;SDS011;66168;45.478;11.060;2023-04-03T08:09:12;2.70;;;1.50;;
76867;SDS011;66168;45.478;11.060;2023-04-03T08:11:41;1.60;;;1.20;;
76867;SDS011;66168;45.478;11.060;2023-04-03T08:14:07;3.20;;;1.40;;
76867;SDS011;66168;45.478;11.060;2023-04-03T08:16:33;3.00;;;1.70;;
76867;SDS011;66168;45.478;11.060;2023-04-03T08:18:59;2.50;;;1.60;;
76867;SDS011;66168;45.478;11.060;2023-04-03T08:21:25;3.90;;;1.50;;
76867;SDS011;66168;45.478;11.060;2023-04-03T08:23:51;3.30;;;1.50;;
76867;SDS011;66168;45.478;11.060;2023-04-03T08:26:19;3.80;;;1.90;;
76867;SDS011;66168;45.478;11.060;2023-04-03T08:28:47;2.10;;;1.90;;
76867;SDS011;66168;45.478;11.060;2023-04-03T08:31:16;2.70;;;1.50;;
76867;SDS011;66168;45.478;11.060;2023-04-03T08:33:44;1.80;;;1.60;;
76867;SDS011;66168;45.478;11.060;2023-04-03T08:36:21;3.80;;;1.80;;
76867;SDS011;66168;45.478;11.060;2023-04-03T08:38:51;5.80;;;1.80;;
76867;SDS011;66168;45.478;11.060;2023-04-03T08:49:33;3.00;;;1.60;;
76867;SDS011;66168;45.478;11.060;2023-04-03T08:52:10;1.70;;;1.50;;
76867;SDS011;66168;45.478;11.060;2023-04-03T08:54:51;4.40;;;1.90;;
76867;SDS011;66168;45.478;11.060;2023-04-03T08:57:25;2.80;;;1.40;;
76867;SDS011;66168;45.478;11.060;2023-04-03T09:00:25;2.20;;;1.60;;
76867;SDS011;66168;45.478;11.060;2023-04-03T09:02:54;4.20;;;1.70;;
76867;SDS011;66168;45.478;11.060;2023-04-03T09:05:33;2.90;;;1.70;;
76867;SDS011;66168;45.478;11.060;2023-04-03T09:08:25;2.60;;;1.70;;
76867;SDS011;66168;45.478;11.060;2023-04-03T09:14:01;4.70;;;1.90;;
76867;SDS011;66168;45.478;11.060;2023-04-03T09:16:46;2.30;;;1.10;;
76867;SDS011;66168;45.478;11.060;2023-04-03T09:22:32;1.60;;;1.50;;
76867;SDS011;66168;45.478;11.060;2023-04-03T09:25:14;2.40;;;1.60;;
76867;SDS011;66168;45.478;11.060;2023-04-03T09:27:43;2.40;;;1.60;;
76867;SDS011;66168;45.478;11.060;2023-04-03T09:30:16;2.60;;;1.80;;
76867;SDS011;66168;45.478;11.060;2023-04-03T09:32:45;4.80;;;1.90;;
76867;SDS011;66168;45.478;11.060;2023-04-03T09:35:32;2.90;;;1.50;;
76867;SDS011;66168;45.478;11.060;2023-04-03T09:40:40;2.10;;;1.90;;
76867;SDS011;66168;45.478;11.060;2023-04-03T09:45:44;2.30;;;2.10;;
76867;SDS011;66168;45.478;11.060;2023-04-03T09:53:37;4.90;;;1.80;;
76867;SDS011;66168;45.478;11.060;2023-04-03T09:58:44;2.50;;;1.60;;
76867;SDS011;66168;45.478;11.060;2023-04-03T10:04:12;2.90;;;2.00;;
76867;SDS011;66168;45.478;11.060;2023-04-03T10:06:41;3.50;;;1.50;;
76867;SDS011;66168;45.478;11.060;2023-04-03T10:09:30;5.40;;;1.80;;
76867;SDS011;66168;45.478;11.060;2023-04-03T10:12:08;1.90;;;1.40;;
76867;SDS011;66168;45.478;11.060;2023-04-03T10:14:39;4.60;;;1.70;;
76867;SDS011;66168;45.478;11.060;2023-04-03T10:34:18;2.50;;;1.40;;
76867;SDS011;66168;45.478;11.060;2023-04-03T10:42:14;2.80;;;1.60;;
76867;SDS011;66168;45.478;11.060;2023-04-03T10:45:03;3.80;;;1.80;;
76867;SDS011;66168;45.478;11.060;2023-04-03T10:53:31;4.30;;;1.50;;
76867;SDS011;66168;45.478;11.060;2023-04-03T10:58:43;2.00;;;1.30;;
76867;SDS011;66168;45.478;11.060;2023-04-03T11:01:24;2.60;;;1.60;;
76867;SDS011;66168;45.478;11.060;2023-04-03T11:03:58;1.30;;;1.20;;
76867;SDS011;66168;45.478;11.060;2023-04-03T11:06:31;5.90;;;1.90;;
76867;SDS011;66168;45.478;11.060;2023-04-03T11:09:16;2.20;;;1.40;;
76867;SDS011;66168;45.478;11.060;2023-04-03T11:11:47;2.30;;;1.80;;
76867;SDS011;66168;45.478;11.060;2023-04-03T11:14:38;2.90;;;1.50;;
76867;SDS011;66168;45.478;11.060;2023-04-03T11:22:34;1.70;;;1.50;;
76867;SDS011;66168;45.478;11.060;2023-04-03T11:25:08;2.30;;;1.30;;
76867;SDS011;66168;45.478;11.060;2023-04-03T11:27:48;3.50;;;1.30;;
76867;SDS011;66168;45.478;11.060;2023-04-03T11:30:24;4.30;;;1.50;;
76867;SDS011;66168;45.478;11.060;2023-04-03T11:35:54;3.30;;;1.70;;
76867;SDS011;66168;45.478;11.060;2023-04-03T11:38:29;2.60;;;1.90;;
76867;SDS011;66168;45.478;11.060;2023-04-03T11:41:04;4.10;;;1.50;;
76867;SDS011;66168;45.478;11.060;2023-04-03T11:43:33;2.20;;;1.90;;
76867;SDS011;66168;45.478;11.060;2023-04-03T11:46:05;4.30;;;1.80;;
76867;SDS011;66168;45.478;11.060;2023-04-03T11:51:02;2.30;;;1.40;;
76867;SDS011;66168;45.478;11.060;2023-04-03T11:53:53;5.00;;;1.90;;
76867;SDS011;66168;45.478;11.060;2023-04-03T12:01:42;4.40;;;2.10;;
76867;SDS011;66168;45.478;11.060;2023-04-03T12:04:20;3.70;;;2.00;;
76867;SDS011;66168;45.478;11.060;2023-04-03T12:06:50;4.90;;;1.80;;
76867;SDS011;66168;45.478;11.060;2023-04-03T12:09:23;4.40;;;1.80;;
76867;SDS011;66168;45.478;11.060;2023-04-03T12:11:54;4.20;;;1.80;;
76867;SDS011;66168;45.478;11.060;2023-04-03T12:14:22;2.60;;;1.10;;
76867;SDS011;66168;45.478;11.060;2023-04-03T12:16:52;3.80;;;1.80;;
76867;SDS011;66168;45.478;11.060;2023-04-03T12:24:24;3.10;;;1.70;;
76867;SDS011;66168;45.478;11.060;2023-04-03T12:29:24;4.00;;;2.20;;
76867;SDS011;66168;45.478;11.060;2023-04-03T12:45:38;2.90;;;1.90;;
76867;SDS011;66168;45.478;11.060;2023-04-03T12:48:08;6.30;;;1.90;;
76867;SDS011;66168;45.478;11.060;2023-04-03T12:50:40;3.70;;;1.60;;
76867;SDS011;66168;45.478;11.060;2023-04-03T12:53:13;5.70;;;2.40;;
76867;SDS011;66168;45.478;11.060;2023-04-03T12:55:44;4.40;;;1.80;;
76867;SDS011;66168;45.478;11.060;2023-04-03T12:58:14;3.10;;;1.70;;
76867;SDS011;66168;45.478;11.060;2023-04-03T13:00:59;4.00;;;2.00;;
76867;SDS011;66168;45.478;11.060;2023-04-03T13:03:27;4.70;;;2.10;;
76867;SDS011;66168;45.478;11.060;2023-04-03T13:05:55;5.20;;;1.80;;
76867;SDS011;66168;45.478;11.060;2023-04-03T13:08:25;4.30;;;2.10;;
76867;SDS011;66168;45.478;11.060;2023-04-03T13:10:56;4.70;;;2.00;;
76867;SDS011;66168;45.478;11.060;2023-04-03T13:13:27;7.70;;;2.10;;
76867;SDS011;66168;45.478;11.060;2023-04-03T13:15:53;5.00;;;1.80;;
76867;SDS011;66168;45.478;11.060;2023-04-03T13:18:31;3.70;;;2.00;;
76867;SDS011;66168;45.478;11.060;2023-04-03T13:21:06;3.40;;;1.50;;
76867;SDS011;66168;45.478;11.060;2023-04-03T13:23:40;2.80;;;1.40;;
76867;SDS011;66168;45.478;11.060;2023-04-03T13:26:10;5.70;;;1.80;;
76867;SDS011;66168;45.478;11.060;2023-04-03T13:28:38;3.50;;;1.90;;
76867;SDS011;66168;45.478;11.060;2023-04-03T13:31:08;4.00;;;1.90;;
76867;SDS011;66168;45.478;11.060;2023-04-03T13:33:56;5.50;;;2.10;;
76867;SDS011;66168;45.478;11.060;2023-04-03T13:36:43;1.70;;;1.50;;
76867;SDS011;66168;45.478;11.060;2023-04-03T13:41:42;2.80;;;1.70;;
76867;SDS011;66168;45.478;11.060;2023-04-03T13:46:49;4.20;;;1.90;;
76867;SDS011;66168;45.478;11.060;2023-04-03T13:49:37;4.90;;;2.20;;
76867;SDS011;66168;45.478;11.060;2023-04-03T13:55:25;4.50;;;1.50;;
76867;SDS011;66168;45.478;11.060;2023-04-03T13:57:54;4.10;;;1.90;;
76867;SDS011;66168;45.478;11.060;2023-04-03T14:03:42;5.10;;;2.20;;
76867;SDS011;66168;45.478;11.060;2023-04-03T14:06:13;3.00;;;1.70;;
76867;SDS011;66168;45.478;11.060;2023-04-03T14:08:42;3.50;;;1.80;;
76867;SDS011;66168;45.478;11.060;2023-04-03T14:11:16;4.70;;;1.90;;
76867;SDS011;66168;45.478;11.060;2023-04-03T14:13:46;10.20;;;2.30;;
76867;SDS011;66168;45.478;11.060;2023-04-03T14:16:18;6.80;;;2.00;;
76867;SDS011;66168;45.478;11.060;2023-04-03T14:18:46;3.10;;;2.00;;
76867;SDS011;66168;45.478;11.060;2023-04-03T14:21:15;3.50;;;2.10;;
76867;SDS011;66168;45.478;11.060;2023-04-03T14:23:42;5.80;;;1.90;;
76867;SDS011;66168;45.478;11.060;2023-04-03T14:26:15;3.20;;;2.00;;
76867;SDS011;66168;45.478;11.060;2023-04-03T14:28:45;6.00;;;1.90;;
76867;SDS011;66168;45.478;11.060;2023-04-03T14:31:14;4.00;;;1.50;;
76867;SDS011;66168;45.478;11.060;2023-04-03T14:33:41;5.00;;;2.00;;
76867;SDS011;66168;45.478;11.060;2023-04-03T14:36:14;5.40;;;1.60;;
76867;SDS011;66168;45.478;11.060;2023-04-03T14:38:46;2.90;;;1.50;;
76867;SDS011;66168;45.478;11.060;2023-04-03T14:41:16;5.50;;;1.70;;
76867;SDS011;66168;45.478;11.060;2023-04-03T14:43:44;2.90;;;1.70;;
76867;SDS011;66168;45.478;11.060;2023-04-03T14:46:12;7.10;;;1.70;;
76867;SDS011;66168;45.478;11.060;2023-04-03T14:48:41;3.00;;;1.60;;
76867;SDS011;66168;45.478;11.060;2023-04-03T14:51:09;2.50;;;1.40;;
76867;SDS011;66168;45.478;11.060;2023-04-03T14:53:37;4.50;;;1.60;;
76867;SDS011;66168;45.478;11.060;2023-04-03T14:56:13;3.70;;;1.80;;
76867;SDS011;66168;45.478;11.060;2023-04-03T14:58:41;7.00;;;2.10;;
76867;SDS011;66168;45.478;11.060;2023-04-03T15:01:09;5.00;;;2.30;;
76867;SDS011;66168;45.478;11.060;2023-04-03T15:03:36;2.60;;;1.90;;
76867;SDS011;66168;45.478;11.060;2023-04-03T15:06:03;7.30;;;2.30;;
76867;SDS011;66168;45.478;11.060;2023-04-03T15:08:29;5.00;;;2.00;;
76867;SDS011;66168;45.478;11.060;2023-04-03T15:10:56;3.70;;;1.90;;
76867;SDS011;66168;45.478;11.060;2023-04-03T15:13:23;3.10;;;1.80;;
76867;SDS011;66168;45.478;11.060;2023-04-03T15:15:50;5.10;;;2.50;;
76867;SDS011;66168;45.478;11.060;2023-04-03T15:18:22;4.10;;;1.80;;
76867;SDS011;66168;45.478;11.060;2023-04-03T15:20:53;6.80;;;2.10;;
76867;SDS011;66168;45.478;11.060;2023-04-03T15:23:20;5.30;;;1.80;;
76867;SDS011;66168;45.478;11.060;2023-04-03T15:25:51;3.70;;;2.00;;
76867;SDS011;66168;45.478;11.060;2023-04-03T15:28:22;4.20;;;1.80;;
76867;SDS011;66168;45.478;11.060;2023-04-03T15:30:56;4.60;;;1.90;;
76867;SDS011;66168;45.478;11.060;2023-04-03T15:33:22;3.20;;;1.90;;
76867;SDS011;66168;45.478;11.060;2023-04-03T15:35:48;3.10;;;1.70;;
76867;SDS011;66168;45.478;11.060;2023-04-03T15:38:14;4.30;;;1.60;;
76867;SDS011;66168;45.478;11.060;2023-04-03T15:40:40;3.10;;;1.80;;
76867;SDS011;66168;45.478;11.060;2023-04-03T15:43:08;5.50;;;1.80;;
76867;SDS011;66168;45.478;11.060;2023-04-03T15:48:01;3.40;;;1.60;;
76867;SDS011;66168;45.478;11.060;2023-04-03T15:50:28;5.10;;;1.50;;
76867;SDS011;66168;45.478;11.060;2023-04-03T15:52:54;2.70;;;1.50;;
76867;SDS011;66168;45.478;11.060;2023-04-03T15:55:21;2.40;;;1.30;;
76867;SDS011;66168;45.478;11.060;2023-04-03T15:57:48;1.70;;;1.60;;
76867;SDS011;66168;45.478;11.060;2023-04-03T16:00:14;7.30;;;1.70;;
76867;SDS011;66168;45.478;11.060;2023-04-03T16:02:41;5.60;;;1.90;;
76867;SDS011;66168;45.478;11.060;2023-04-03T16:05:10;4.70;;;1.60;;
76867;SDS011;66168;45.478;11.060;2023-04-03T16:07:39;2.60;;;1.50;;
76867;SDS011;66168;45.478;11.060;2023-04-03T16:10:06;3.70;;;1.50;;
76867;SDS011;66168;45.478;11.060;2023-04-03T16:12:33;3.30;;;1.50;;
76867;SDS011;66168;45.478;11.060;2023-04-03T16:15:00;2.60;;;1.40;;
76867;SDS011;66168;45.478;11.060;2023-04-03T16:17:26;4.40;;;1.90;;
76867;SDS011;66168;45.478;11.060;2023-04-03T16:19:54;3.90;;;2.00;;
76867;SDS011;66168;45.478;11.060;2023-04-03T16:22:21;4.60;;;1.90;;
76867;SDS011;66168;45.478;11.060;2023-04-03T16:24:49;3.40;;;1.50;;
76867;SDS011;66168;45.478;11.060;2023-04-03T16:27:15;2.30;;;1.50;;
76867;SDS011;66168;45.478;11.060;2023-04-03T16:29:42;4.10;;;1.70;;
76867;SDS011;66168;45.478;11.060;2023-04-03T16:32:08;2.30;;;1.60;;
76867;SDS011;66168;45.478;11.060;2023-04-03T16:34:34;4.00;;;1.50;;
76867;SDS011;66168;45.478;11.060;2023-04-03T16:37:00;1.50;;;1.10;;
76867;SDS011;66168;45.478;11.060;2023-04-03T16:39:26;4.20;;;2.30;;
76867;SDS011;66168;45.478;11.060;2023-04-03T16:44:18;1.30;;;1.20;;
76867;SDS011;66168;45.478;11.060;2023-04-03T16:46:44;2.40;;;1.40;;
76867;SDS011;66168;45.478;11.060;2023-04-03T16:49:13;2.00;;;1.40;;
76867;SDS011;66168;45.478;11.060;2023-04-03T16:51:39;3.10;;;1.30;;
76867;SDS011;66168;45.478;11.060;2023-04-03T16:56:32;1.60;;;1.00;;
76867;SDS011;66168;45.478;11.060;2023-04-03T16:58:58;4.00;;;1.40;;
76867;SDS011;66168;45.478;11.060;2023-04-03T17:01:25;2.60;;;1.20;;
76867;SDS011;66168;45.478;11.060;2023-04-03T17:03:51;4.90;;;1.50;;
76867;SDS011;66168;45.478;11.060;2023-04-03T17:06:18;3.10;;;1.20;;
76867;SDS011;66168;45.478;11.060;2023-04-03T17:08:47;2.30;;;1.10;;
76867;SDS011;66168;45.478;11.060;2023-04-03T17:11:28;3.10;;;1.60;;
76867;SDS011;66168;45.478;11.060;2023-04-03T17:13:54;3.10;;;1.20;;
76867;SDS011;66168;45.478;11.060;2023-04-03T17:16:20;4.20;;;1.90;;
76867;SDS011;66168;45.478;11.060;2023-04-03T17:18:47;3.50;;;2.10;;
76867;SDS011;66168;45.478;11.060;2023-04-03T17:21:13;5.50;;;2.00;;
76867;SDS011;66168;45.478;11.060;2023-04-03T17:23:41;6.10;;;3.00;;
76867;SDS011;66168;45.478;11.060;2023-04-03T17:26:10;5.80;;;3.30;;
76867;SDS011;66168;45.478;11.060;2023-04-03T17:28:36;4.70;;;3.30;;